Time,TemperatureF,DewpointF,PressureIn,WindDirection,WindDirectionDegrees,WindSpeedMPH,WindSpeedGustMPH,Humidity,HourlyPrecipIn,Conditions,Clouds,dailyrainin,SoftwareType,DateUTC
2013-03-20 00:00:00,24.4,14.7,30.33,North,5,0.0,14.0,66,0.00,,,0.00,Wunderground v.1.13,2013-03-20 06:00:00,
2013-03-20 00:05:00,24.1,14.4,30.34,North,5,0.0,14.0,66,0.00,,,0.00,Wunderground v.1.13,2013-03-20 06:05:00,
2013-03-20 00:10:00,23.8,14.1,30.34,North,5,0.0,14.0,66,0.00,,,0.00,Wunderground v.1.13,2013-03-20 06:10:00,
2013-03-20 00:15:00,23.6,13.9,30.34,North,5,0.0,14.0,66,0.00,,,0.00,Wunderground v.1.13,2013-03-20 06:15:00,
2013-03-20 00:20:00,23.5,13.8,30.35,North,5,0.0,14.0,66,0.00,,,0.00,Wunderground v.1.13,2013-03-20 06:20:00,
2013-03-20 00:29:00,22.7,13.4,30.35,North,5,0.0,14.0,67,0.00,,,0.00,Wunderground v.1.13,2013-03-20 06:29:00,
2013-03-20 00:35:00,22.2,12.9,30.35,North,5,0.0,14.0,67,0.00,,,0.00,Wunderground v.1.13,2013-03-20 06:35:00,
2013-03-20 00:40:00,21.9,12.6,30.35,North,5,0.0,14.0,67,0.00,,,0.00,Wunderground v.1.13,2013-03-20 06:40:00,
2013-03-20 00:49:00,21.6,12.7,30.35,North,5,0.0,14.0,68,0.00,,,0.00,Wunderground v.1.13,2013-03-20 06:49:00,
2013-03-20 00:55:00,21.3,12.4,30.35,North,5,0.0,14.0,68,0.00,,,0.00,Wunderground v.1.13,2013-03-20 06:55:00,
2013-03-20 01:00:00,21.3,12.7,30.35,North,5,0.0,14.0,69,0.00,,,0.00,Wunderground v.1.13,2013-03-20 07:00:00,
2013-03-20 01:05:00,21.0,12.1,30.35,North,5,0.0,14.0,68,0.00,,,0.00,Wunderground v.1.13,2013-03-20 07:05:00,
2013-03-20 01:10:00,20.3,11.4,30.35,North,5,0.0,14.0,68,0.00,,,0.00,Wunderground v.1.13,2013-03-20 07:10:00,
2013-03-20 01:15:00,19.7,10.8,30.35,North,5,0.0,14.0,68,0.00,,,0.00,Wunderground v.1.13,2013-03-20 07:15:00,
2013-03-20 01:20:00,19.4,10.9,30.35,North,5,0.0,14.0,69,0.00,,,0.00,Wunderground v.1.13,2013-03-20 07:20:00,
2013-03-20 01:25:00,19.1,10.9,30.35,North,5,0.0,14.0,70,0.00,,,0.00,Wunderground v.1.13,2013-03-20 07:25:00,
2013-03-20 01:29:00,18.9,10.7,30.35,North,5,0.0,14.0,70,0.00,,,0.00,Wunderground v.1.13,2013-03-20 07:29:00,
2013-03-20 01:35:00,18.8,10.6,30.35,North,5,0.0,14.0,70,0.00,,,0.00,Wunderground v.1.13,2013-03-20 07:35:00,
2013-03-20 01:40:00,18.6,10.4,30.35,North,5,0.0,14.0,70,0.00,,,0.00,Wunderground v.1.13,2013-03-20 07:40:00,
2013-03-20 01:45:00,18.4,10.2,30.35,North,5,0.0,14.0,70,0.00,,,0.00,Wunderground v.1.13,2013-03-20 07:45:00,
2013-03-20 01:50:00,18.3,10.1,30.35,North,5,0.0,14.0,70,0.00,,,0.00,Wunderground v.1.13,2013-03-20 07:50:00,
2013-03-20 01:54:00,18.3,10.1,30.35,North,5,0.0,14.0,70,0.00,,,0.00,Wunderground v.1.13,2013-03-20 07:54:00,
2013-03-20 01:59:00,18.0,9.9,30.35,North,5,0.0,14.0,70,0.00,,,0.00,Wunderground v.1.13,2013-03-20 07:59:00,
2013-03-20 02:05:00,17.8,9.7,30.36,North,5,0.0,14.0,70,0.00,,,0.00,Wunderground v.1.13,2013-03-20 08:05:00,
2013-03-20 02:10:00,18.0,9.5,30.36,North,5,0.0,14.0,69,0.00,,,0.00,Wunderground v.1.13,2013-03-20 08:10:00,
2013-03-20 02:15:00,18.0,9.5,30.36,North,5,0.0,14.0,69,0.00,,,0.00,Wunderground v.1.13,2013-03-20 08:15:00,
2013-03-20 02:19:00,18.0,9.5,30.35,North,5,0.0,14.0,69,0.00,,,0.00,Wunderground v.1.13,2013-03-20 08:19:00,
2013-03-20 02:24:00,17.8,9.7,30.35,North,5,0.0,14.0,70,0.00,,,0.00,Wunderground v.1.13,2013-03-20 08:24:00,
2013-03-20 02:30:00,17.7,9.6,30.35,North,5,0.0,14.0,70,0.00,,,0.00,Wunderground v.1.13,2013-03-20 08:30:00,
2013-03-20 02:35:00,17.5,9.4,30.34,North,5,0.0,14.0,70,0.00,,,0.00,Wunderground v.1.13,2013-03-20 08:35:00,
2013-03-20 02:40:00,17.3,9.5,30.34,North,5,0.0,14.0,71,0.00,,,0.00,Wunderground v.1.13,2013-03-20 08:40:00,
2013-03-20 02:45:00,17.3,9.5,30.34,North,5,0.0,14.0,71,0.00,,,0.00,Wunderground v.1.13,2013-03-20 08:45:00,
2013-03-20 02:50:00,17.2,9.4,30.34,North,5,0.0,14.0,71,0.00,,,0.00,Wunderground v.1.13,2013-03-20 08:50:00,
2013-03-20 02:55:00,17.0,9.2,30.34,North,5,0.0,14.0,71,0.00,,,0.00,Wunderground v.1.13,2013-03-20 08:55:00,
2013-03-20 03:00:00,16.9,9.1,30.34,North,5,0.0,14.0,71,0.00,,,0.00,Wunderground v.1.13,2013-03-20 09:00:00,
2013-03-20 03:05:00,16.7,8.9,30.34,North,5,0.0,14.0,71,0.00,,,0.00,Wunderground v.1.13,2013-03-20 09:05:00,
2013-03-20 03:10:00,16.5,9.0,30.34,North,5,0.0,14.0,72,0.00,,,0.00,Wunderground v.1.13,2013-03-20 09:10:00,
2013-03-20 03:14:00,16.4,8.9,30.34,North,5,0.0,14.0,72,0.00,,,0.00,Wunderground v.1.13,2013-03-20 09:14:00,
2013-03-20 03:19:00,16.2,8.8,30.33,North,5,0.0,14.0,72,0.00,,,0.00,Wunderground v.1.13,2013-03-20 09:19:00,
2013-03-20 03:24:00,16.2,9.1,30.33,North,5,0.0,14.0,73,0.00,,,0.00,Wunderground v.1.13,2013-03-20 09:24:00,
2013-03-20 03:30:00,16.1,9.0,30.33,North,5,0.0,14.0,73,0.00,,,0.00,Wunderground v.1.13,2013-03-20 09:30:00,
2013-03-20 03:35:00,15.9,8.8,30.33,North,5,0.0,14.0,73,0.00,,,0.00,Wunderground v.1.13,2013-03-20 09:35:00,
2013-03-20 03:39:00,15.7,8.9,30.33,North,5,0.0,14.0,74,0.00,,,0.00,Wunderground v.1.13,2013-03-20 09:39:00,
2013-03-20 03:44:00,15.6,9.1,30.33,North,5,0.0,14.0,75,0.00,,,0.00,Wunderground v.1.13,2013-03-20 09:44:00,
2013-03-20 03:49:00,15.4,8.9,30.32,North,5,0.0,14.0,75,0.00,,,0.00,Wunderground v.1.13,2013-03-20 09:49:00,
2013-03-20 04:00:00,15.2,8.7,30.32,North,5,0.0,14.0,75,0.00,,,0.00,Wunderground v.1.13,2013-03-20 10:00:00,
2013-03-20 04:05:00,15.1,8.6,30.32,North,5,0.0,14.0,75,0.00,,,0.00,Wunderground v.1.13,2013-03-20 10:05:00,
2013-03-20 04:10:00,15.1,8.9,30.32,North,5,0.0,14.0,76,0.00,,,0.00,Wunderground v.1.13,2013-03-20 10:10:00,
2013-03-20 04:15:00,14.9,8.7,30.32,North,5,0.0,14.0,76,0.00,,,0.00,Wunderground v.1.13,2013-03-20 10:15:00,
2013-03-20 04:19:00,14.9,8.7,30.31,North,5,0.0,14.0,76,0.00,,,0.00,Wunderground v.1.13,2013-03-20 10:19:00,
2013-03-20 04:25:00,14.8,8.6,30.31,North,5,0.0,14.0,76,0.00,,,0.00,Wunderground v.1.13,2013-03-20 10:25:00,
2013-03-20 04:30:00,14.6,8.4,30.31,North,5,0.0,14.0,76,0.00,,,0.00,Wunderground v.1.13,2013-03-20 10:30:00,
2013-03-20 04:39:00,14.6,8.7,30.31,North,5,0.0,14.0,77,0.00,,,0.00,Wunderground v.1.13,2013-03-20 10:39:00,
2013-03-20 04:50:00,14.6,8.7,30.30,North,5,0.0,14.0,77,0.00,,,0.00,Wunderground v.1.13,2013-03-20 10:50:00,
2013-03-20 04:55:00,14.6,8.7,30.30,North,5,0.0,14.0,77,0.00,,,0.00,Wunderground v.1.13,2013-03-20 10:55:00,
2013-03-20 05:00:00,14.6,8.7,30.30,North,5,0.0,14.0,77,0.00,,,0.00,Wunderground v.1.13,2013-03-20 11:00:00,
2013-03-20 05:05:00,14.6,9.0,30.31,North,5,0.0,14.0,78,0.00,,,0.00,Wunderground v.1.13,2013-03-20 11:05:00,
2013-03-20 05:09:00,14.8,9.2,30.31,North,5,0.0,14.0,78,0.00,,,0.00,Wunderground v.1.13,2013-03-20 11:09:00,
2013-03-20 05:14:00,14.6,9.0,30.31,North,5,0.0,14.0,78,0.00,,,0.00,Wunderground v.1.13,2013-03-20 11:14:00,
2013-03-20 05:20:00,14.6,9.0,30.31,North,5,0.0,14.0,78,0.00,,,0.00,Wunderground v.1.13,2013-03-20 11:20:00,
2013-03-20 05:30:00,14.4,8.8,30.31,North,5,0.0,14.0,78,0.00,,,0.00,Wunderground v.1.13,2013-03-20 11:30:00,
2013-03-20 05:40:00,14.3,8.4,30.31,North,5,0.0,14.0,77,0.00,,,0.00,Wunderground v.1.13,2013-03-20 11:40:00,
2013-03-20 05:45:00,14.1,8.2,30.31,North,5,0.0,14.0,77,0.00,,,0.00,Wunderground v.1.13,2013-03-20 11:45:00,
2013-03-20 05:55:00,13.8,8.2,30.31,North,5,0.0,14.0,78,0.00,,,0.00,Wunderground v.1.13,2013-03-20 11:55:00,
2013-03-20 05:59:00,13.8,8.2,30.31,North,5,0.0,14.0,78,0.00,,,0.00,Wunderground v.1.13,2013-03-20 11:59:00,
2013-03-20 06:05:00,13.8,8.5,30.31,North,5,0.0,14.0,79,0.00,,,0.00,Wunderground v.1.13,2013-03-20 12:05:00,
2013-03-20 06:10:00,13.8,8.5,30.31,North,5,0.0,14.0,79,0.00,,,0.00,Wunderground v.1.13,2013-03-20 12:10:00,
2013-03-20 06:15:00,14.1,8.8,30.31,North,5,0.0,14.0,79,0.00,,,0.00,Wunderground v.1.13,2013-03-20 12:15:00,
2013-03-20 06:20:00,14.1,8.8,30.31,North,5,0.0,14.0,79,0.00,,,0.00,Wunderground v.1.13,2013-03-20 12:20:00,
2013-03-20 06:30:00,14.1,8.8,30.31,North,5,0.0,14.0,79,0.00,,,0.00,Wunderground v.1.13,2013-03-20 12:30:00,
2013-03-20 06:35:00,14.3,9.3,30.31,North,5,0.0,14.0,80,0.00,,,0.00,Wunderground v.1.13,2013-03-20 12:35:00,
2013-03-20 06:44:00,14.3,9.3,30.31,North,5,0.0,14.0,80,0.00,,,0.00,Wunderground v.1.13,2013-03-20 12:44:00,
2013-03-20 06:49:00,14.4,9.6,30.31,North,5,0.0,14.0,81,0.00,,,0.00,Wunderground v.1.13,2013-03-20 12:49:00,
2013-03-20 06:55:00,14.6,9.6,30.31,North,5,0.0,14.0,80,0.00,,,0.00,Wunderground v.1.13,2013-03-20 12:55:00,
2013-03-20 07:00:00,14.6,9.6,30.31,North,5,0.0,14.0,80,0.00,,,0.00,Wunderground v.1.13,2013-03-20 13:00:00,
2013-03-20 07:05:00,14.4,9.4,30.31,North,5,0.0,14.0,80,0.00,,,0.00,Wunderground v.1.13,2013-03-20 13:05:00,
2013-03-20 07:10:00,14.3,9.3,30.31,North,5,0.0,14.0,80,0.00,,,0.00,Wunderground v.1.13,2013-03-20 13:10:00,
2013-03-20 07:14:00,14.3,9.3,30.31,North,5,0.0,14.0,80,0.00,,,0.00,Wunderground v.1.13,2013-03-20 13:14:00,
2013-03-20 07:19:00,14.4,9.6,30.31,North,5,0.0,14.0,81,0.00,,,0.00,Wunderground v.1.13,2013-03-20 13:19:00,
2013-03-20 07:25:00,14.6,9.8,30.31,North,5,0.0,14.0,81,0.00,,,0.00,Wunderground v.1.13,2013-03-20 13:25:00,
2013-03-20 07:30:00,14.8,10.0,30.31,North,5,0.0,14.0,81,0.00,,,0.00,Wunderground v.1.13,2013-03-20 13:30:00,
2013-03-20 07:35:00,15.2,10.7,30.31,North,5,0.0,14.0,82,0.00,,,0.00,Wunderground v.1.13,2013-03-20 13:35:00,
2013-03-20 07:40:00,15.9,11.4,30.31,North,5,0.0,14.0,82,0.00,,,0.00,Wunderground v.1.13,2013-03-20 13:40:00,
2013-03-20 07:45:00,17.2,12.9,30.31,North,5,0.0,14.0,83,0.00,,,0.00,Wunderground v.1.13,2013-03-20 13:45:00,
2013-03-20 07:49:00,18.3,14.0,30.31,North,5,0.0,14.0,83,0.00,,,0.00,Wunderground v.1.13,2013-03-20 13:49:00,
2013-03-20 07:54:00,19.7,15.4,30.31,North,5,0.0,14.0,83,0.00,,,0.00,Wunderground v.1.13,2013-03-20 13:54:00,
2013-03-20 07:59:00,21.9,17.2,30.31,North,5,0.0,14.0,82,0.00,,,0.00,Wunderground v.1.13,2013-03-20 13:59:00,
2013-03-20 08:05:00,23.2,17.1,30.30,North,5,0.0,14.0,77,0.00,,,0.00,Wunderground v.1.13,2013-03-20 14:05:00,
2013-03-20 08:10:00,24.1,17.6,30.30,North,5,0.0,14.0,76,0.00,,,0.00,Wunderground v.1.13,2013-03-20 14:10:00,
2013-03-20 08:20:00,24.4,15.7,30.29,North,5,0.0,14.0,69,0.00,,,0.00,Wunderground v.1.13,2013-03-20 14:20:00,
2013-03-20 08:24:00,24.1,14.7,30.29,North,5,0.0,14.0,67,0.00,,,0.00,Wunderground v.1.13,2013-03-20 14:24:00,
2013-03-20 08:29:00,24.1,14.0,30.29,North,5,0.0,14.0,65,0.00,,,0.00,Wunderground v.1.13,2013-03-20 14:29:00,
2013-03-20 08:34:00,24.2,13.8,30.29,North,5,0.0,14.0,64,0.00,,,0.00,Wunderground v.1.13,2013-03-20 14:34:00,
2013-03-20 08:40:00,24.5,14.1,30.29,NE,38,0.0,14.0,64,0.00,,,0.00,Wunderground v.1.13,2013-03-20 14:40:00,
2013-03-20 08:45:00,24.8,14.3,30.29,NE,38,0.0,14.0,64,0.00,,,0.00,Wunderground v.1.13,2013-03-20 14:45:00,
2013-03-20 08:50:00,25.6,15.5,30.29,NE,38,0.0,14.0,65,0.00,,,0.00,Wunderground v.1.13,2013-03-20 14:50:00,
2013-03-20 08:54:00,26.3,14.7,30.29,NE,35,0.0,14.0,61,0.00,,,0.00,Wunderground v.1.13,2013-03-20 14:54:00,
2013-03-20 09:04:00,27.8,10.6,30.29,South,178,3.0,14.0,48,0.00,,,0.00,Wunderground v.1.13,2013-03-20 15:04:00,
2013-03-20 09:10:00,28.5,10.8,30.29,South,182,3.0,3.0,47,0.00,,,0.00,Wunderground v.1.13,2013-03-20 15:10:00,
2013-03-20 09:15:00,28.8,10.6,30.29,South,190,4.0,4.0,46,0.00,,,0.00,Wunderground v.1.13,2013-03-20 15:15:00,
2013-03-20 09:20:00,29.1,10.9,30.28,South,175,5.0,14.0,46,0.00,,,0.00,Wunderground v.1.13,2013-03-20 15:20:00,
2013-03-20 09:29:00,29.7,10.9,30.28,SSW,202,5.0,14.0,45,0.00,,,0.00,Wunderground v.1.13,2013-03-20 15:29:00,
2013-03-20 09:34:00,30.1,9.7,30.28,South,187,5.0,5.0,42,0.00,,,0.00,Wunderground v.1.13,2013-03-20 15:34:00,
2013-03-20 09:39:00,30.3,9.9,30.28,South,186,6.0,14.0,42,0.00,,,0.00,Wunderground v.1.13,2013-03-20 15:39:00,
2013-03-20 09:45:00,30.7,10.8,30.28,South,189,5.0,14.0,43,0.00,,,0.00,Wunderground v.1.13,2013-03-20 15:45:00,
2013-03-20 09:50:00,30.6,9.1,30.27,South,184,6.0,6.0,40,0.00,,,0.00,Wunderground v.1.13,2013-03-20 15:50:00,
2013-03-20 09:55:00,31.0,10.0,30.27,SW,234,7.0,14.0,41,0.00,,,0.00,Wunderground v.1.13,2013-03-20 15:55:00,
2013-03-20 10:04:00,32.5,12.5,30.26,SSE,165,5.0,5.0,43,0.00,,,0.00,Wunderground v.1.13,2013-03-20 16:04:00,
2013-03-20 10:10:00,32.7,11.6,30.26,SSW,198,4.0,14.0,41,0.00,,,0.00,Wunderground v.1.13,2013-03-20 16:10:00,
2013-03-20 10:15:00,32.8,11.1,30.26,South,184,5.0,14.0,40,0.00,,,0.00,Wunderground v.1.13,2013-03-20 16:15:00,
2013-03-20 10:20:00,33.2,12.6,30.25,South,184,6.0,14.0,42,0.00,,,0.00,Wunderground v.1.13,2013-03-20 16:20:00,
2013-03-20 10:25:00,32.8,11.6,30.25,SSW,205,7.0,7.0,41,0.00,,,0.00,Wunderground v.1.13,2013-03-20 16:25:00,
2013-03-20 10:30:00,33.1,12.5,30.25,South,182,7.0,7.0,42,0.00,,,0.00,Wunderground v.1.13,2013-03-20 16:30:00,
2013-03-20 10:35:00,33.4,12.7,30.25,SW,231,5.0,16.0,42,0.00,,,0.00,Wunderground v.1.13,2013-03-20 16:35:00,
2013-03-20 10:45:00,34.1,13.4,30.25,SE,146,7.0,14.0,42,0.00,,,0.00,Wunderground v.1.13,2013-03-20 16:45:00,
2013-03-20 10:49:00,35.0,14.2,30.23,SSE,163,7.0,14.0,42,0.00,,,0.00,Wunderground v.1.13,2013-03-20 16:49:00,
2013-03-20 10:54:00,35.0,13.6,30.23,South,177,7.0,7.0,41,0.00,,,0.00,Wunderground v.1.13,2013-03-20 16:54:00,
2013-03-20 10:59:00,35.3,13.9,30.23,SW,219,7.0,14.0,41,0.00,,,0.00,Wunderground v.1.13,2013-03-20 16:59:00,
2013-03-20 11:05:00,36.0,14.5,30.22,SSW,200,5.0,5.0,41,0.00,,,0.00,Wunderground v.1.13,2013-03-20 17:05:00,
2013-03-20 11:10:00,36.3,14.8,30.22,SSE,150,7.0,14.0,41,0.00,,,0.00,Wunderground v.1.13,2013-03-20 17:10:00,
2013-03-20 11:14:00,36.9,14.8,30.22,SSW,197,7.0,7.0,40,0.00,,,0.00,Wunderground v.1.13,2013-03-20 17:14:00,
2013-03-20 11:19:00,37.2,14.5,30.20,SSW,204,7.0,14.0,39,0.00,,,0.00,Wunderground v.1.13,2013-03-20 17:19:00,
2013-03-20 11:24:00,37.3,15.2,30.20,SSE,163,9.0,9.0,40,0.00,,,0.00,Wunderground v.1.13,2013-03-20 17:24:00,
2013-03-20 11:29:00,37.8,15.0,30.20,SSW,198,8.0,14.0,39,0.00,,,0.00,Wunderground v.1.13,2013-03-20 17:29:00,
2013-03-20 11:35:00,38.2,15.4,30.18,South,176,8.0,8.0,39,0.00,,,0.00,Wunderground v.1.13,2013-03-20 17:35:00,
2013-03-20 11:40:00,38.3,15.5,30.18,SE,134,7.0,14.0,39,0.00,,,0.00,Wunderground v.1.13,2013-03-20 17:40:00,
2013-03-20 11:50:00,38.9,16.0,30.18,SSW,198,8.0,8.0,39,0.00,,,0.00,Wunderground v.1.13,2013-03-20 17:50:00,
2013-03-20 11:54:00,39.3,15.8,30.18,South,183,8.0,8.0,38,0.00,,,0.00,Wunderground v.1.13,2013-03-20 17:54:00,
2013-03-20 11:59:00,39.5,16.6,30.18,SE,129,8.0,14.0,39,0.00,,,0.00,Wunderground v.1.13,2013-03-20 17:59:00,
2013-03-20 12:05:00,40.2,16.6,30.16,South,175,8.0,8.0,38,0.00,,,0.00,Wunderground v.1.13,2013-03-20 18:05:00,
2013-03-20 12:10:00,40.2,16.6,30.16,SSE,149,8.0,14.0,38,0.00,,,0.00,Wunderground v.1.13,2013-03-20 18:10:00,
2013-03-20 12:15:00,40.8,16.5,30.16,SE,133,8.0,8.0,37,0.00,,,0.00,Wunderground v.1.13,2013-03-20 18:15:00,
2013-03-20 12:20:00,41.3,15.7,30.14,SE,140,7.0,14.0,35,0.00,,,0.00,Wunderground v.1.13,2013-03-20 18:20:00,
2013-03-20 12:25:00,41.3,15.7,30.14,SE,144,8.0,15.0,35,0.00,,,0.00,Wunderground v.1.13,2013-03-20 18:25:00,
2013-03-20 12:30:00,40.8,15.2,30.14,South,189,11.0,14.0,35,0.00,,,0.00,Wunderground v.1.13,2013-03-20 18:30:00,
2013-03-20 12:35:00,41.2,14.9,30.13,SSW,210,13.0,13.0,34,0.00,,,0.00,Wunderground v.1.13,2013-03-20 18:35:00,
2013-03-20 12:40:00,41.1,15.5,30.13,SSW,205,11.0,11.0,35,0.00,,,0.00,Wunderground v.1.13,2013-03-20 18:40:00,
2013-03-20 12:45:00,42.1,15.7,30.13,SSW,205,7.0,7.0,34,0.00,,,0.00,Wunderground v.1.13,2013-03-20 18:45:00,
2013-03-20 12:50:00,42.1,15.7,30.12,SSE,163,6.0,6.0,34,0.00,,,0.00,Wunderground v.1.13,2013-03-20 18:50:00,
2013-03-20 12:59:00,41.6,14.6,30.12,SSW,194,9.0,9.0,33,0.00,,,0.00,Wunderground v.1.13,2013-03-20 18:59:00,
2013-03-20 13:04:00,42.6,15.5,30.11,SSW,195,8.0,14.0,33,0.00,,,0.00,Wunderground v.1.13,2013-03-20 19:04:00,
2013-03-20 13:10:00,43.1,14.5,30.11,SSW,202,6.0,6.0,31,0.00,,,0.00,Wunderground v.1.13,2013-03-20 19:10:00,
2013-03-20 13:20:00,43.3,14.6,30.10,South,169,8.0,14.0,31,0.00,,,0.00,Wunderground v.1.13,2013-03-20 19:20:00,
2013-03-20 13:25:00,43.5,15.5,30.10,South,190,8.0,8.0,32,0.00,,,0.00,Wunderground v.1.13,2013-03-20 19:25:00,
2013-03-20 13:30:00,43.3,15.4,30.10,South,177,9.0,9.0,32,0.00,,,0.00,Wunderground v.1.13,2013-03-20 19:30:00,
2013-03-20 13:35:00,43.3,16.1,30.09,SSE,166,9.0,9.0,33,0.00,,,0.00,Wunderground v.1.13,2013-03-20 19:35:00,
2013-03-20 13:44:00,44.5,15.7,30.09,SW,225,9.0,14.0,31,0.00,,,0.00,Wunderground v.1.13,2013-03-20 19:44:00,
2013-03-20 13:49:00,44.9,16.0,30.06,SSE,163,9.0,9.0,31,0.00,,,0.00,Wunderground v.1.13,2013-03-20 19:49:00,
2013-03-20 13:55:00,44.8,16.0,30.06,South,190,10.0,20.0,31,0.00,,,0.00,Wunderground v.1.13,2013-03-20 19:55:00,
2013-03-20 14:00:00,44.8,15.2,30.06,South,190,11.0,11.0,30,0.00,,,0.00,Wunderground v.1.13,2013-03-20 20:00:00,
2013-03-20 14:05:00,44.5,15.7,30.05,South,170,10.0,10.0,31,0.00,,,0.00,Wunderground v.1.13,2013-03-20 20:05:00,
2013-03-20 14:10:00,44.6,15.0,30.05,SSE,157,10.0,10.0,30,0.00,,,0.00,Wunderground v.1.13,2013-03-20 20:10:00,
2013-03-20 14:15:00,45.4,16.5,30.05,SE,141,9.0,15.0,31,0.00,,,0.00,Wunderground v.1.13,2013-03-20 20:15:00,
2013-03-20 14:20:00,45.5,15.8,30.04,SSE,151,9.0,16.0,30,0.00,,,0.00,Wunderground v.1.13,2013-03-20 20:20:00,
2013-03-20 14:25:00,45.5,15.0,30.04,SSE,160,11.0,14.0,29,0.00,,,0.00,Wunderground v.1.13,2013-03-20 20:25:00,
2013-03-20 14:30:00,45.8,15.3,30.04,South,182,10.0,22.0,29,0.00,,,0.00,Wunderground v.1.13,2013-03-20 20:30:00,
2013-03-20 14:35:00,46.1,15.6,30.02,South,173,10.0,10.0,29,0.00,,,0.00,Wunderground v.1.13,2013-03-20 20:35:00,
2013-03-20 14:40:00,46.5,15.1,30.02,SE,144,9.0,9.0,28,0.00,,,0.00,Wunderground v.1.13,2013-03-20 20:40:00,
2013-03-20 14:49:00,46.7,15.3,30.00,South,180,8.0,8.0,28,0.00,,,0.00,Wunderground v.1.13,2013-03-20 20:49:00,
2013-03-20 14:55:00,46.8,15.4,30.00,South,175,9.0,9.0,28,0.00,,,0.00,Wunderground v.1.13,2013-03-20 20:55:00,
2013-03-20 15:00:00,47.4,15.9,30.00,SSE,154,10.0,10.0,28,0.00,,,0.00,Wunderground v.1.13,2013-03-20 21:00:00,
2013-03-20 15:10:00,48.3,16.7,29.99,South,189,10.0,15.0,28,0.00,,,0.00,Wunderground v.1.13,2013-03-20 21:10:00,
2013-03-20 15:15:00,48.8,16.2,29.99,SE,142,9.0,9.0,27,0.00,,,0.00,Wunderground v.1.13,2013-03-20 21:15:00,
2013-03-20 15:20:00,48.5,16.0,29.98,SSW,204,8.0,14.0,27,0.00,,,0.00,Wunderground v.1.13,2013-03-20 21:20:00,
2013-03-20 15:24:00,47.9,14.6,29.98,South,178,11.0,14.0,26,0.00,,,0.00,Wunderground v.1.13,2013-03-20 21:24:00,
2013-03-20 15:34:00,48.3,16.7,29.97,SSW,196,9.0,14.0,28,0.00,,,0.00,Wunderground v.1.13,2013-03-20 21:34:00,
2013-03-20 15:40:00,48.5,16.8,29.97,SSE,168,9.0,14.0,28,0.00,,,0.00,Wunderground v.1.13,2013-03-20 21:40:00,
2013-03-20 15:45:00,48.0,16.4,29.97,SSE,155,10.0,15.0,28,0.00,,,0.00,Wunderground v.1.13,2013-03-20 21:45:00,
2013-03-20 15:54:00,48.6,16.9,29.97,SSW,206,10.0,10.0,28,0.00,,,0.00,Wunderground v.1.13,2013-03-20 21:54:00,
2013-03-20 16:00:00,49.1,17.3,29.97,South,186,9.0,14.0,28,0.00,,,0.00,Wunderground v.1.13,2013-03-20 22:00:00,
2013-03-20 16:10:00,49.4,17.6,29.95,South,176,11.0,11.0,28,0.00,,,0.00,Wunderground v.1.13,2013-03-20 22:10:00,
2013-03-20 16:15:00,49.4,17.6,29.95,SSE,165,10.0,10.0,28,0.00,,,0.00,Wunderground v.1.13,2013-03-20 22:15:00,
2013-03-20 16:20:00,49.9,18.0,29.93,SE,136,9.0,19.0,28,0.00,,,0.00,Wunderground v.1.13,2013-03-20 22:20:00,
2013-03-20 16:29:00,49.8,17.1,29.93,SSE,167,10.0,10.0,27,0.00,,,0.00,Wunderground v.1.13,2013-03-20 22:29:00,
2013-03-20 16:35:00,49.8,17.1,29.93,SSW,209,10.0,10.0,27,0.00,,,0.00,Wunderground v.1.13,2013-03-20 22:35:00,
2013-03-20 16:40:00,50.4,17.6,29.93,SSE,161,11.0,18.0,27,0.00,,,0.00,Wunderground v.1.13,2013-03-20 22:40:00,
2013-03-20 16:45:00,50.1,17.4,29.93,SSW,199,9.0,15.0,27,0.00,,,0.00,Wunderground v.1.13,2013-03-20 22:45:00,
2013-03-20 16:50:00,49.8,17.1,29.92,South,176,8.0,8.0,27,0.00,,,0.00,Wunderground v.1.13,2013-03-20 22:50:00,
2013-03-20 16:55:00,49.8,18.0,29.92,South,188,9.0,9.0,28,0.00,,,0.00,Wunderground v.1.13,2013-03-20 22:55:00,
2013-03-20 17:05:00,50.2,17.5,29.91,SW,228,10.0,10.0,27,0.00,,,0.00,Wunderground v.1.13,2013-03-20 23:05:00,
2013-03-20 17:10:00,49.9,17.2,29.91,South,180,11.0,11.0,27,0.00,,,0.00,Wunderground v.1.13,2013-03-20 23:10:00,
2013-03-20 17:15:00,50.1,17.4,29.91,SSE,151,9.0,14.0,27,0.00,,,0.00,Wunderground v.1.13,2013-03-20 23:15:00,
2013-03-20 17:24:00,48.9,17.2,29.90,SSE,154,8.0,14.0,28,0.00,,,0.00,Wunderground v.1.13,2013-03-20 23:24:00,
2013-03-20 17:29:00,48.8,17.1,29.90,SSE,150,7.0,7.0,28,0.00,,,0.00,Wunderground v.1.13,2013-03-20 23:29:00,
2013-03-20 17:34:00,48.9,17.2,29.89,South,169,6.0,6.0,28,0.00,,,0.00,Wunderground v.1.13,2013-03-20 23:34:00,
2013-03-20 17:39:00,48.9,16.3,29.89,SE,146,6.0,6.0,27,0.00,,,0.00,Wunderground v.1.13,2013-03-20 23:39:00,
2013-03-20 17:45:00,48.8,17.1,29.89,SSE,157,5.0,14.0,28,0.00,,,0.00,Wunderground v.1.13,2013-03-20 23:45:00,
2013-03-20 17:49:00,48.3,16.7,29.88,SSE,153,6.0,6.0,28,0.00,,,0.00,Wunderground v.1.13,2013-03-20 23:49:00,
2013-03-20 17:54:00,48.2,16.6,29.88,SE,144,5.0,14.0,28,0.00,,,0.00,Wunderground v.1.13,2013-03-20 23:54:00,
2013-03-20 18:00:00,48.0,16.4,29.88,SSE,158,5.0,14.0,28,0.00,,,0.00,Wunderground v.1.13,2013-03-21 00:00:00,
2013-03-20 18:05:00,47.9,16.3,29.88,SE,140,5.0,5.0,28,0.00,,,0.00,Wunderground v.1.13,2013-03-21 00:05:00,
2013-03-20 18:14:00,47.4,15.9,29.88,SSE,165,7.0,14.0,28,0.00,,,0.00,Wunderground v.1.13,2013-03-21 00:14:00,
2013-03-20 18:24:00,46.8,16.2,29.87,SE,144,4.0,14.0,29,0.00,,,0.00,Wunderground v.1.13,2013-03-21 00:24:00,
2013-03-20 18:29:00,46.7,16.1,29.87,SSE,148,4.0,4.0,29,0.00,,,0.00,Wunderground v.1.13,2013-03-21 00:29:00,
2013-03-20 18:34:00,46.5,15.9,29.86,SSE,148,3.0,3.0,29,0.00,,,0.00,Wunderground v.1.13,2013-03-21 00:34:00,
2013-03-20 18:40:00,46.1,15.6,29.86,SE,138,3.0,14.0,29,0.00,,,0.00,Wunderground v.1.13,2013-03-21 00:40:00,
2013-03-20 18:45:00,45.8,16.1,29.86,SSE,153,3.0,14.0,30,0.00,,,0.00,Wunderground v.1.13,2013-03-21 00:45:00,
2013-03-20 18:50:00,45.5,15.8,29.85,SSE,148,3.0,3.0,30,0.00,,,0.00,Wunderground v.1.13,2013-03-21 00:50:00,
2013-03-20 18:55:00,45.4,16.5,29.85,SSE,158,4.0,14.0,31,0.00,,,0.00,Wunderground v.1.13,2013-03-21 00:55:00,
2013-03-20 19:04:00,44.9,16.0,29.84,SSE,160,3.0,3.0,31,0.00,,,0.00,Wunderground v.1.13,2013-03-21 01:04:00,
2013-03-20 19:09:00,44.6,15.8,29.84,SSE,159,3.0,3.0,31,0.00,,,0.00,Wunderground v.1.13,2013-03-21 01:09:00,
2013-03-20 19:14:00,44.3,16.3,29.84,SSE,156,3.0,14.0,32,0.00,,,0.00,Wunderground v.1.13,2013-03-21 01:14:00,
2013-03-20 19:19:00,44.2,16.9,29.84,SE,132,2.0,2.0,33,0.00,,,0.00,Wunderground v.1.13,2013-03-21 01:19:00,
2013-03-20 19:25:00,43.9,17.3,29.84,SE,125,1.0,1.0,34,0.00,,,0.00,Wunderground v.1.13,2013-03-21 01:25:00,
2013-03-20 19:30:00,43.6,17.0,29.84,SE,136,0.0,14.0,34,0.00,,,0.00,Wunderground v.1.13,2013-03-21 01:30:00,
2013-03-20 19:35:00,43.3,17.4,29.84,SE,142,0.0,14.0,35,0.00,,,0.00,Wunderground v.1.13,2013-03-21 01:35:00,
2013-03-20 19:44:00,42.9,17.7,29.84,SE,136,0.0,14.0,36,0.00,,,0.00,Wunderground v.1.13,2013-03-21 01:44:00,
2013-03-20 19:49:00,42.6,17.5,29.83,SE,127,0.0,14.0,36,0.00,,,0.00,Wunderground v.1.13,2013-03-21 01:49:00,
2013-03-20 19:55:00,42.3,17.2,29.83,SE,129,0.0,14.0,36,0.00,,,0.00,Wunderground v.1.13,2013-03-21 01:55:00,
2013-03-20 20:00:00,42.1,17.7,29.83,East,90,0.0,14.0,37,0.00,,,0.00,Wunderground v.1.13,2013-03-21 02:00:00,
2013-03-20 20:10:00,41.8,17.4,29.84,SE,145,0.0,14.0,37,0.00,,,0.00,Wunderground v.1.13,2013-03-21 02:10:00,
2013-03-20 20:15:00,41.6,17.8,29.84,SE,132,0.0,14.0,38,0.00,,,0.00,Wunderground v.1.13,2013-03-21 02:15:00,
2013-03-20 20:20:00,41.3,17.6,29.83,SE,130,0.0,14.0,38,0.00,,,0.00,Wunderground v.1.13,2013-03-21 02:20:00,
2013-03-20 20:24:00,41.1,17.4,29.83,SE,135,0.0,14.0,38,0.00,,,0.00,Wunderground v.1.13,2013-03-21 02:24:00,
2013-03-20 20:29:00,40.9,17.8,29.83,ESE,123,0.0,14.0,39,0.00,,,0.00,Wunderground v.1.13,2013-03-21 02:29:00,
2013-03-20 20:34:00,40.8,17.7,29.83,SE,138,0.0,14.0,39,0.00,,,0.00,Wunderground v.1.13,2013-03-21 02:34:00,
2013-03-20 20:39:00,40.6,17.5,29.83,SE,146,0.0,14.0,39,0.00,,,0.00,Wunderground v.1.13,2013-03-21 02:39:00,
2013-03-20 20:45:00,40.6,17.5,29.83,SE,140,0.0,14.0,39,0.00,,,0.00,Wunderground v.1.13,2013-03-21 02:45:00,
2013-03-20 20:50:00,40.5,18.0,29.83,SE,138,0.0,14.0,40,0.00,,,0.00,Wunderground v.1.13,2013-03-21 02:50:00,
2013-03-20 20:59:00,40.2,17.8,29.83,East,84,0.0,14.0,40,0.00,,,0.00,Wunderground v.1.13,2013-03-21 02:59:00,
2013-03-20 21:04:00,40.1,18.3,29.83,East,90,0.0,14.0,41,0.00,,,0.00,Wunderground v.1.13,2013-03-21 03:04:00,
2013-03-20 21:10:00,39.9,18.1,29.83,East,92,0.0,14.0,41,0.00,,,0.00,Wunderground v.1.13,2013-03-21 03:10:00,
2013-03-20 21:14:00,39.6,18.4,29.83,East,87,0.0,14.0,42,0.00,,,0.00,Wunderground v.1.13,2013-03-21 03:14:00,
2013-03-20 21:20:00,39.6,18.4,29.83,SE,146,0.0,14.0,42,0.00,,,0.00,Wunderground v.1.13,2013-03-21 03:20:00,
2013-03-20 21:30:00,39.5,18.3,29.83,East,93,0.0,14.0,42,0.00,,,0.00,Wunderground v.1.13,2013-03-21 03:30:00,
2013-03-20 21:39:00,39.2,18.5,29.83,SE,138,0.0,14.0,43,0.00,,,0.00,Wunderground v.1.13,2013-03-21 03:39:00,
2013-03-20 21:44:00,38.9,18.3,29.83,SSE,148,1.0,1.0,43,0.00,,,0.00,Wunderground v.1.13,2013-03-21 03:44:00,
2013-03-20 21:50:00,38.8,18.7,29.82,SE,140,1.0,14.0,44,0.00,,,0.00,Wunderground v.1.13,2013-03-21 03:50:00,
2013-03-20 21:55:00,38.6,18.5,29.82,ESE,117,1.0,14.0,44,0.00,,,0.00,Wunderground v.1.13,2013-03-21 03:55:00,
2013-03-20 22:00:00,38.6,18.5,29.82,ESE,118,1.0,1.0,44,0.00,,,0.00,Wunderground v.1.13,2013-03-21 04:00:00,
2013-03-20 22:05:00,38.5,18.4,29.82,SE,138,1.0,1.0,44,0.00,,,0.00,Wunderground v.1.13,2013-03-21 04:05:00,
2013-03-20 22:09:00,38.3,18.8,29.82,ESE,113,1.0,1.0,45,0.00,,,0.00,Wunderground v.1.13,2013-03-21 04:09:00,
2013-03-20 22:14:00,38.3,18.8,29.82,ESE,118,1.0,14.0,45,0.00,,,0.00,Wunderground v.1.13,2013-03-21 04:14:00,
2013-03-20 22:25:00,38.5,19.0,29.81,ESE,117,2.0,2.0,45,0.00,,,0.00,Wunderground v.1.13,2013-03-21 04:25:00,
2013-03-20 22:30:00,38.6,18.5,29.81,SE,138,2.0,2.0,44,0.00,,,0.00,Wunderground v.1.13,2013-03-21 04:30:00,
2013-03-20 22:39:00,38.6,18.0,29.81,SSE,165,3.0,14.0,43,0.00,,,0.00,Wunderground v.1.13,2013-03-21 04:39:00,
2013-03-20 22:44:00,38.6,18.5,29.81,SE,146,3.0,14.0,44,0.00,,,0.00,Wunderground v.1.13,2013-03-21 04:44:00,
2013-03-20 22:50:00,38.5,18.4,29.81,SE,146,3.0,14.0,44,0.00,,,0.00,Wunderground v.1.13,2013-03-21 04:50:00,
2013-03-20 22:59:00,38.0,18.0,29.81,SE,130,4.0,4.0,44,0.00,,,0.00,Wunderground v.1.13,2013-03-21 04:59:00,
2013-03-20 23:04:00,37.9,18.4,29.81,SE,141,3.0,3.0,45,0.00,,,0.00,Wunderground v.1.13,2013-03-21 05:04:00,
2013-03-20 23:09:00,37.8,18.3,29.81,SSE,150,4.0,14.0,45,0.00,,,0.00,Wunderground v.1.13,2013-03-21 05:09:00,
2013-03-20 23:14:00,37.5,18.1,29.81,SE,137,5.0,5.0,45,0.00,,,0.00,Wunderground v.1.13,2013-03-21 05:14:00,
2013-03-20 23:19:00,37.3,18.4,29.80,SE,138,5.0,5.0,46,0.00,,,0.00,Wunderground v.1.13,2013-03-21 05:19:00,
2013-03-20 23:25:00,37.2,18.3,29.80,SSE,154,5.0,14.0,46,0.00,,,0.00,Wunderground v.1.13,2013-03-21 05:25:00,
2013-03-20 23:29:00,37.0,18.1,29.80,SE,127,4.0,4.0,46,0.00,,,0.00,Wunderground v.1.13,2013-03-21 05:29:00,
2013-03-20 23:40:00,36.6,18.2,29.79,SE,140,3.0,3.0,47,0.00,,,0.00,Wunderground v.1.13,2013-03-21 05:40:00,
2013-03-20 23:45:00,36.6,18.2,29.79,SSE,165,4.0,14.0,47,0.00,,,0.00,Wunderground v.1.13,2013-03-21 05:45:00,
2013-03-20 23:50:00,36.5,18.6,29.79,ESE,118,4.0,4.0,48,0.00,,,0.00,Wunderground v.1.13,2013-03-21 05:50:00,
2013-03-20 23:55:00,36.3,18.5,29.79,ESE,110,6.0,14.0,48,0.00,,,0.00,Wunderground v.1.13,2013-03-21 05:55:00,